EZY074 ENBR-EGLC
Flight info
| Callsign | EZY074 |
|---|---|
| Flight time | 1h 48m |
| Altitude | 35000 |
| Route | TUXIL DCT ZOL DCT SUTEB/N0454F380 DCT GALSO Q63 SUMUM SUMUM1C |
| Aircraft | A20N/M-V/N |
Departure
| Time | 2026-05-06 19:33 |
|---|---|
| Airport | Bergen Airport, Flesland (ENBR) |
Arrival
| Time | 2026-05-06 21:22 |
|---|---|
| Airport | London City Airport (EGLC) |
| Time | Latitude | Longitude | Altitude | Speed | Heading |
|---|---|---|---|---|---|
| 2026-05-06 18:58 | 60.28367 | 5.22688 | 160 ft | 0 kts | 91° |
| 2026-05-06 19:16 | 60.28367 | 5.22666 | 160 ft | 3 kts | 91° |
| 2026-05-06 19:17 | 60.28367 | 5.22628 | 160 ft | 3 kts | 91° |
| 2026-05-06 19:17 | 60.28368 | 5.22591 | 160 ft | 3 kts | 91° |
| 2026-05-06 19:17 | 60.28368 | 5.22555 | 160 ft | 0 kts | 91° |
| 2026-05-06 19:23 | 60.28368 | 5.22551 | 160 ft | 0 kts | 91° |
| 2026-05-06 19:23 | 60.28368 | 5.22552 | 160 ft | 0 kts | 90° |
| 2026-05-06 19:24 | 60.28369 | 5.22554 | 160 ft | 0 kts | 75° |
| 2026-05-06 19:24 | 60.28372 | 5.22559 | 160 ft | 2 kts | 47° |
| 2026-05-06 19:24 | 60.28386 | 5.22564 | 160 ft | 3 kts | 4° |
| 2026-05-06 19:25 | 60.28430 | 5.22556 | 161 ft | 9 kts | 352° |
| 2026-05-06 19:25 | 60.28491 | 5.22538 | 161 ft | 9 kts | 352° |
| 2026-05-06 19:25 | 60.28548 | 5.22523 | 162 ft | 8 kts | 352° |
| 2026-05-06 19:25 | 60.28602 | 5.22500 | 162 ft | 10 kts | 341° |
| 2026-05-06 19:26 | 60.28704 | 5.22403 | 163 ft | 20 kts | 333° |
| 2026-05-06 19:26 | 60.28836 | 5.22312 | 164 ft | 20 kts | 347° |
| 2026-05-06 19:26 | 60.28969 | 5.22260 | 165 ft | 19 kts | 350° |
| 2026-05-06 19:26 | 60.29095 | 5.22215 | 166 ft | 18 kts | 350° |
| 2026-05-06 19:27 | 60.29217 | 5.22171 | 167 ft | 17 kts | 351° |
| 2026-05-06 19:27 | 60.29334 | 5.22131 | 168 ft | 17 kts | 350° |
| 2026-05-06 19:27 | 60.29446 | 5.22092 | 169 ft | 16 kts | 351° |
| 2026-05-06 19:27 | 60.29553 | 5.22058 | 170 ft | 15 kts | 351° |
| 2026-05-06 19:28 | 60.29656 | 5.22025 | 171 ft | 15 kts | 351° |
| 2026-05-06 19:28 | 60.29754 | 5.21993 | 172 ft | 14 kts | 351° |
| 2026-05-06 19:28 | 60.29847 | 5.21963 | 173 ft | 13 kts | 351° |
| 2026-05-06 19:28 | 60.29936 | 5.21934 | 174 ft | 13 kts | 351° |
| 2026-05-06 19:29 | 60.30020 | 5.21906 | 174 ft | 12 kts | 351° |
| 2026-05-06 19:29 | 60.30100 | 5.21880 | 175 ft | 11 kts | 351° |
| 2026-05-06 19:29 | 60.30173 | 5.21855 | 176 ft | 11 kts | 351° |
| 2026-05-06 19:29 | 60.30244 | 5.21832 | 176 ft | 10 kts | 351° |
| 2026-05-06 19:30 | 60.30310 | 5.21810 | 177 ft | 9 kts | 351° |
| 2026-05-06 19:30 | 60.30377 | 5.21788 | 177 ft | 12 kts | 351° |
| 2026-05-06 19:30 | 60.30465 | 5.21759 | 178 ft | 13 kts | 351° |
| 2026-05-06 19:30 | 60.30550 | 5.21731 | 179 ft | 12 kts | 351° |
| 2026-05-06 19:31 | 60.30629 | 5.21701 | 180 ft | 11 kts | 339° |
| 2026-05-06 19:31 | 60.30659 | 5.21635 | 180 ft | 2 kts | 291° |
| 2026-05-06 19:31 | 60.30613 | 5.21433 | 182 ft | 9 kts | 204° |
| 2026-05-06 19:32 | 60.30547 | 5.21417 | 179 ft | 11 kts | 173° |
| 2026-05-06 19:32 | 60.30527 | 5.21424 | 179 ft | 0 kts | 169° |
| 2026-05-06 19:32 | 60.30517 | 5.21429 | 178 ft | 14 kts | 167° |
| 2026-05-06 19:33 | 60.30179 | 5.21527 | 174 ft | 83 kts | 167° |
| 2026-05-06 19:33 | 60.29400 | 5.21830 | 199 ft | 145 kts | 167° |
| 2026-05-06 19:33 | 60.28324 | 5.22225 | 692 ft | 169 kts | 170° |
| 2026-05-06 19:33 | 60.27095 | 5.22665 | 1289 ft | 186 kts | 170° |
| 2026-05-06 19:34 | 60.25732 | 5.23124 | 1812 ft | 215 kts | 171° |
| 2026-05-06 19:34 | 60.24139 | 5.23656 | 2243 ft | 244 kts | 171° |
| 2026-05-06 19:34 | 60.22422 | 5.24238 | 2953 ft | 254 kts | 171° |
| 2026-05-06 19:34 | 60.20663 | 5.24834 | 3782 ft | 259 kts | 171° |
| 2026-05-06 19:35 | 60.18877 | 5.25437 | 4652 ft | 262 kts | 171° |
| 2026-05-06 19:35 | 60.17065 | 5.26046 | 5451 ft | 265 kts | 171° |
| 2026-05-06 19:35 | 60.15236 | 5.26658 | 5897 ft | 268 kts | 171° |
| 2026-05-06 19:35 | 60.13393 | 5.27272 | 5997 ft | 269 kts | 172° |
| 2026-05-06 19:36 | 60.11565 | 5.27879 | 6003 ft | 270 kts | 171° |
| 2026-05-06 19:36 | 60.09709 | 5.28480 | 6002 ft | 271 kts | 172° |
| 2026-05-06 19:36 | 60.07843 | 5.29012 | 5999 ft | 271 kts | 173° |
| 2026-05-06 19:36 | 60.05975 | 5.29519 | 6003 ft | 271 kts | 173° |
| 2026-05-06 19:37 | 60.04106 | 5.30019 | 6143 ft | 272 kts | 173° |
| 2026-05-06 19:37 | 60.02214 | 5.30526 | 6652 ft | 276 kts | 173° |
| 2026-05-06 19:37 | 60.00306 | 5.31037 | 7218 ft | 278 kts | 173° |
| 2026-05-06 19:37 | 59.99032 | 5.31378 | 7824 ft | 279 kts | 173° |
| 2026-05-06 19:38 | 59.96447 | 5.32069 | 9100 ft | 282 kts | 174° |
| 2026-05-06 19:38 | 59.94514 | 5.32585 | 9986 ft | 286 kts | 174° |
| 2026-05-06 19:38 | 59.92496 | 5.33121 | 10559 ft | 302 kts | 175° |
| 2026-05-06 19:38 | 59.90330 | 5.33695 | 10886 ft | 326 kts | 175° |
| 2026-05-06 19:39 | 59.88002 | 5.34314 | 11240 ft | 348 kts | 175° |
| 2026-05-06 19:39 | 59.85550 | 5.34968 | 11873 ft | 360 kts | 175° |
| 2026-05-06 19:39 | 59.83048 | 5.35635 | 12716 ft | 366 kts | 176° |
| 2026-05-06 19:39 | 59.80511 | 5.36296 | 13581 ft | 370 kts | 178° |
| 2026-05-06 19:40 | 59.77942 | 5.36800 | 14368 ft | 373 kts | 180° |
| 2026-05-06 19:40 | 59.75345 | 5.37236 | 15101 ft | 376 kts | 180° |
| 2026-05-06 19:40 | 59.72724 | 5.37663 | 15820 ft | 380 kts | 181° |
| 2026-05-06 19:40 | 59.70110 | 5.38090 | 16498 ft | 384 kts | 181° |
| 2026-05-06 19:41 | 59.67439 | 5.38528 | 16944 ft | 386 kts | 181° |
| 2026-05-06 19:41 | 59.64761 | 5.39000 | 17099 ft | 388 kts | 180° |
| 2026-05-06 19:41 | 59.62058 | 5.39637 | 17524 ft | 394 kts | 179° |
| 2026-05-06 19:41 | 59.59326 | 5.40331 | 18255 ft | 397 kts | 179° |
| 2026-05-06 19:42 | 59.56576 | 5.41034 | 18879 ft | 400 kts | 179° |
| 2026-05-06 19:42 | 59.53806 | 5.41740 | 19483 ft | 403 kts | 179° |
| 2026-05-06 19:42 | 59.51011 | 5.42449 | 20096 ft | 407 kts | 179° |
| 2026-05-06 19:42 | 59.48195 | 5.43162 | 20714 ft | 409 kts | 179° |
| 2026-05-06 19:43 | 59.45358 | 5.43879 | 21289 ft | 413 kts | 179° |
| 2026-05-06 19:43 | 59.42538 | 5.44589 | 21833 ft | 416 kts | 179° |
| 2026-05-06 19:43 | 59.39659 | 5.45365 | 22379 ft | 421 kts | 178° |
| 2026-05-06 19:43 | 59.36753 | 5.46337 | 22907 ft | 426 kts | 176° |
| 2026-05-06 19:44 | 59.33829 | 5.47388 | 23389 ft | 428 kts | 178° |
| 2026-05-06 19:44 | 59.30878 | 5.47920 | 23844 ft | 426 kts | 183° |
| 2026-05-06 19:44 | 59.27918 | 5.48180 | 24286 ft | 426 kts | 185° |
| 2026-05-06 19:44 | 59.24950 | 5.48294 | 24729 ft | 427 kts | 186° |
| 2026-05-06 19:45 | 59.21980 | 5.48306 | 25164 ft | 427 kts | 186° |
| 2026-05-06 19:45 | 59.19002 | 5.48264 | 25590 ft | 429 kts | 187° |
| 2026-05-06 19:45 | 59.16014 | 5.48198 | 26009 ft | 430 kts | 187° |
| 2026-05-06 19:45 | 59.13055 | 5.48127 | 26412 ft | 432 kts | 187° |
| 2026-05-06 19:46 | 59.10049 | 5.48059 | 26798 ft | 433 kts | 187° |
| 2026-05-06 19:46 | 59.07029 | 5.47998 | 27178 ft | 435 kts | 187° |
| 2026-05-06 19:46 | 59.03995 | 5.47943 | 27545 ft | 437 kts | 186° |
| 2026-05-06 19:46 | 59.00949 | 5.47892 | 27909 ft | 439 kts | 186° |
| 2026-05-06 19:47 | 58.97888 | 5.47843 | 28259 ft | 441 kts | 186° |
| 2026-05-06 19:47 | 58.94815 | 5.47795 | 28626 ft | 442 kts | 186° |
| 2026-05-06 19:47 | 58.91743 | 5.47751 | 29130 ft | 440 kts | 186° |
| 2026-05-06 19:47 | 58.88734 | 5.47710 | 29643 ft | 438 kts | 186° |
| 2026-05-06 19:48 | 58.85694 | 5.47668 | 30112 ft | 436 kts | 186° |
| 2026-05-06 19:48 | 58.82663 | 5.47625 | 30464 ft | 436 kts | 186° |
| 2026-05-06 19:48 | 58.79627 | 5.47577 | 30743 ft | 437 kts | 186° |
| 2026-05-06 19:48 | 58.76589 | 5.47527 | 31008 ft | 438 kts | 186° |
| 2026-05-06 19:49 | 58.73529 | 5.47477 | 31287 ft | 439 kts | 186° |
| 2026-05-06 19:49 | 58.70473 | 5.47426 | 31557 ft | 440 kts | 186° |
| 2026-05-06 19:49 | 58.67404 | 5.47376 | 31827 ft | 441 kts | 186° |
| 2026-05-06 19:49 | 58.64333 | 5.47326 | 32104 ft | 442 kts | 186° |
| 2026-05-06 19:50 | 58.61258 | 5.47277 | 32385 ft | 442 kts | 186° |
| 2026-05-06 19:50 | 58.58222 | 5.47229 | 32654 ft | 443 kts | 186° |
| 2026-05-06 19:50 | 58.55137 | 5.47180 | 32920 ft | 444 kts | 186° |
| 2026-05-06 19:50 | 58.52051 | 5.47130 | 33196 ft | 444 kts | 186° |
| 2026-05-06 19:51 | 58.48960 | 5.47080 | 33469 ft | 444 kts | 186° |
| 2026-05-06 19:51 | 58.45867 | 5.47028 | 33722 ft | 445 kts | 186° |
| 2026-05-06 19:51 | 58.42771 | 5.46977 | 33978 ft | 445 kts | 186° |
| 2026-05-06 19:51 | 58.39674 | 5.46926 | 34191 ft | 445 kts | 186° |
| 2026-05-06 19:52 | 58.36573 | 5.46875 | 34399 ft | 446 kts | 185° |
| 2026-05-06 19:52 | 58.33515 | 5.46826 | 34603 ft | 446 kts | 185° |
| 2026-05-06 19:52 | 58.30417 | 5.46775 | 34815 ft | 446 kts | 185° |
| 2026-05-06 19:52 | 58.27314 | 5.46725 | 35016 ft | 446 kts | 185° |
| 2026-05-06 19:53 | 58.24211 | 5.46675 | 35210 ft | 446 kts | 185° |
| 2026-05-06 19:53 | 58.21113 | 5.46625 | 35407 ft | 446 kts | 185° |
| 2026-05-06 19:53 | 58.18010 | 5.46575 | 35600 ft | 446 kts | 185° |
| 2026-05-06 19:53 | 58.14911 | 5.46526 | 35795 ft | 446 kts | 185° |
| 2026-05-06 19:54 | 58.11810 | 5.46477 | 35972 ft | 446 kts | 184° |
| 2026-05-06 19:54 | 58.08699 | 5.46427 | 36042 ft | 448 kts | 184° |
| 2026-05-06 19:54 | 58.02508 | 5.46332 | 36049 ft | 447 kts | 184° |
| 2026-05-06 19:55 | 57.96292 | 5.46238 | 36052 ft | 446 kts | 184° |
| 2026-05-06 19:55 | 57.90087 | 5.46144 | 36052 ft | 446 kts | 184° |
| 2026-05-06 19:56 | 57.83884 | 5.46050 | 36050 ft | 446 kts | 184° |
| 2026-05-06 19:56 | 57.77685 | 5.45956 | 36053 ft | 445 kts | 184° |
| 2026-05-06 19:57 | 57.71531 | 5.45864 | 36049 ft | 445 kts | 184° |
| 2026-05-06 19:57 | 57.65345 | 5.45772 | 36049 ft | 444 kts | 184° |
| 2026-05-06 19:58 | 57.59160 | 5.45681 | 36049 ft | 444 kts | 184° |
| 2026-05-06 19:58 | 57.52979 | 5.45589 | 36042 ft | 444 kts | 184° |
| 2026-05-06 19:59 | 57.46841 | 5.45499 | 36042 ft | 444 kts | 184° |
| 2026-05-06 19:59 | 57.40666 | 5.45408 | 36047 ft | 444 kts | 184° |
| 2026-05-06 20:00 | 57.34497 | 5.45318 | 36049 ft | 443 kts | 184° |
| 2026-05-06 20:00 | 57.28330 | 5.45228 | 36044 ft | 443 kts | 184° |
| 2026-05-06 20:01 | 57.22171 | 5.45139 | 36049 ft | 443 kts | 184° |
| 2026-05-06 20:01 | 57.16005 | 5.45050 | 36051 ft | 443 kts | 184° |
| 2026-05-06 20:02 | 57.09887 | 5.44961 | 36049 ft | 443 kts | 184° |
| 2026-05-06 20:02 | 57.03726 | 5.44872 | 36051 ft | 442 kts | 184° |
| 2026-05-06 20:03 | 56.97570 | 5.44784 | 36048 ft | 442 kts | 184° |
| 2026-05-06 20:03 | 56.91416 | 5.44696 | 36050 ft | 442 kts | 184° |
| 2026-05-06 20:04 | 56.85261 | 5.44608 | 36049 ft | 442 kts | 184° |
| 2026-05-06 20:04 | 56.79147 | 5.44522 | 36050 ft | 442 kts | 184° |
| 2026-05-06 20:05 | 56.72992 | 5.44434 | 36051 ft | 442 kts | 184° |
| 2026-05-06 20:05 | 56.66841 | 5.44346 | 36050 ft | 442 kts | 183° |
| 2026-05-06 20:06 | 56.60688 | 5.44260 | 36048 ft | 442 kts | 183° |
| 2026-05-06 20:06 | 56.54578 | 5.44175 | 36048 ft | 442 kts | 183° |
| 2026-05-06 20:07 | 56.48428 | 5.44090 | 36048 ft | 442 kts | 183° |
| 2026-05-06 20:07 | 56.42285 | 5.44006 | 36048 ft | 441 kts | 183° |
| 2026-05-06 20:08 | 56.36143 | 5.43921 | 36050 ft | 441 kts | 183° |
| 2026-05-06 20:08 | 56.30042 | 5.43837 | 36051 ft | 441 kts | 183° |
| 2026-05-06 20:09 | 56.23901 | 5.43752 | 36050 ft | 441 kts | 183° |
| 2026-05-06 20:09 | 56.17765 | 5.43667 | 36049 ft | 441 kts | 183° |
| 2026-05-06 20:10 | 56.11634 | 5.43583 | 36046 ft | 440 kts | 183° |
| 2026-05-06 20:10 | 56.05547 | 5.43500 | 36049 ft | 440 kts | 183° |
| 2026-05-06 20:11 | 55.99419 | 5.43417 | 36049 ft | 440 kts | 183° |
| 2026-05-06 20:11 | 55.93294 | 5.43334 | 36049 ft | 440 kts | 183° |
| 2026-05-06 20:12 | 55.87171 | 5.43251 | 36043 ft | 440 kts | 183° |
| 2026-05-06 20:12 | 55.81093 | 5.43170 | 36052 ft | 440 kts | 183° |
| 2026-05-06 20:13 | 55.74973 | 5.43088 | 36045 ft | 440 kts | 183° |
| 2026-05-06 20:13 | 55.68860 | 5.43008 | 36043 ft | 439 kts | 183° |
| 2026-05-06 20:14 | 55.62748 | 5.42928 | 36043 ft | 439 kts | 183° |
| 2026-05-06 20:14 | 55.56641 | 5.42848 | 36041 ft | 439 kts | 183° |
| 2026-05-06 20:15 | 55.50580 | 5.42765 | 36040 ft | 439 kts | 183° |
| 2026-05-06 20:15 | 55.44477 | 5.42683 | 36038 ft | 438 kts | 183° |
| 2026-05-06 20:16 | 55.38376 | 5.42602 | 36035 ft | 438 kts | 183° |
| 2026-05-06 20:16 | 55.32277 | 5.42522 | 36036 ft | 438 kts | 183° |
| 2026-05-06 20:17 | 55.26225 | 5.42443 | 36035 ft | 438 kts | 183° |
| 2026-05-06 20:17 | 55.20129 | 5.42363 | 36034 ft | 438 kts | 183° |
| 2026-05-06 20:18 | 55.14035 | 5.42283 | 36033 ft | 438 kts | 183° |
| 2026-05-06 20:18 | 55.07941 | 5.42203 | 36028 ft | 438 kts | 183° |
| 2026-05-06 20:19 | 55.01911 | 5.41870 | 36029 ft | 435 kts | 189° |
| 2026-05-06 20:19 | 54.96119 | 5.39198 | 36035 ft | 430 kts | 202° |
| 2026-05-06 20:20 | 54.90596 | 5.35280 | 36031 ft | 428 kts | 205° |
| 2026-05-06 20:20 | 54.85132 | 5.31141 | 36029 ft | 428 kts | 205° |
| 2026-05-06 20:21 | 54.79703 | 5.27047 | 36023 ft | 429 kts | 205° |
| 2026-05-06 20:21 | 54.74220 | 5.22973 | 36032 ft | 429 kts | 205° |
| 2026-05-06 20:22 | 54.68729 | 5.18928 | 36034 ft | 429 kts | 204° |
| 2026-05-06 20:22 | 54.63233 | 5.14896 | 36033 ft | 429 kts | 204° |
| 2026-05-06 20:23 | 54.57770 | 5.10898 | 36019 ft | 429 kts | 204° |
| 2026-05-06 20:23 | 54.52268 | 5.06880 | 36025 ft | 430 kts | 204° |
| 2026-05-06 20:24 | 54.46760 | 5.02870 | 36017 ft | 430 kts | 204° |
| 2026-05-06 20:24 | 54.41253 | 4.98873 | 36020 ft | 430 kts | 204° |
| 2026-05-06 20:25 | 54.35738 | 4.94884 | 36019 ft | 430 kts | 204° |
| 2026-05-06 20:25 | 54.30254 | 4.90928 | 36019 ft | 430 kts | 204° |
| 2026-05-06 20:26 | 54.24732 | 4.86956 | 36022 ft | 431 kts | 204° |
| 2026-05-06 20:26 | 54.19205 | 4.82991 | 36022 ft | 431 kts | 204° |
| 2026-05-06 20:27 | 54.13708 | 4.79059 | 36020 ft | 431 kts | 204° |
| 2026-05-06 20:27 | 54.08173 | 4.75111 | 36019 ft | 431 kts | 204° |
| 2026-05-06 20:28 | 54.02637 | 4.71174 | 36021 ft | 432 kts | 204° |
| 2026-05-06 20:28 | 53.97089 | 4.67240 | 36019 ft | 432 kts | 204° |
| 2026-05-06 20:29 | 53.91544 | 4.63321 | 36021 ft | 432 kts | 204° |
| 2026-05-06 20:29 | 53.85993 | 4.59408 | 36021 ft | 432 kts | 204° |
| 2026-05-06 20:30 | 53.78065 | 4.52443 | 36019 ft | 430 kts | 219° |
| 2026-05-06 20:31 | 53.73430 | 4.46130 | 36024 ft | 429 kts | 211° |
| 2026-05-06 20:31 | 53.67990 | 4.41922 | 36019 ft | 432 kts | 203° |
| 2026-05-06 20:32 | 53.62400 | 4.38290 | 36015 ft | 434 kts | 202° |
| 2026-05-06 20:32 | 53.56758 | 4.34648 | 36016 ft | 434 kts | 202° |
| 2026-05-06 20:33 | 53.51131 | 4.30940 | 36013 ft | 434 kts | 202° |
| 2026-05-06 20:33 | 53.45508 | 4.27199 | 36014 ft | 435 kts | 202° |
| 2026-05-06 20:34 | 53.39883 | 4.23457 | 36014 ft | 435 kts | 202° |
| 2026-05-06 20:34 | 53.34295 | 4.19754 | 36011 ft | 435 kts | 202° |
| 2026-05-06 20:35 | 53.28662 | 4.16033 | 36012 ft | 436 kts | 202° |
| 2026-05-06 20:35 | 53.23017 | 4.12317 | 36007 ft | 436 kts | 202° |
| 2026-05-06 20:36 | 53.17376 | 4.08613 | 36004 ft | 436 kts | 202° |
| 2026-05-06 20:36 | 53.11769 | 4.04942 | 36010 ft | 436 kts | 202° |
| 2026-05-06 20:37 | 53.06120 | 4.01255 | 36007 ft | 436 kts | 202° |
| 2026-05-06 20:37 | 53.00468 | 3.97574 | 36006 ft | 436 kts | 202° |
| 2026-05-06 20:38 | 52.94846 | 3.93925 | 36006 ft | 437 kts | 202° |
| 2026-05-06 20:38 | 52.89189 | 3.90262 | 36002 ft | 437 kts | 202° |
| 2026-05-06 20:39 | 52.83525 | 3.86606 | 36001 ft | 437 kts | 202° |
| 2026-05-06 20:39 | 52.77859 | 3.82959 | 35999 ft | 437 kts | 202° |
| 2026-05-06 20:40 | 52.73143 | 3.79932 | 36002 ft | 437 kts | 202° |
| 2026-05-06 20:40 | 52.66546 | 3.75709 | 35996 ft | 438 kts | 202° |
| 2026-05-06 20:41 | 52.60868 | 3.72084 | 35996 ft | 438 kts | 202° |
| 2026-05-06 20:41 | 52.56144 | 3.69075 | 35995 ft | 438 kts | 202° |
| 2026-05-06 20:42 | 52.50456 | 3.65463 | 35993 ft | 438 kts | 202° |
| 2026-05-06 20:42 | 52.44762 | 3.61857 | 35993 ft | 439 kts | 202° |
| 2026-05-06 20:43 | 52.39063 | 3.58259 | 35991 ft | 439 kts | 202° |
| 2026-05-06 20:43 | 52.33398 | 3.54691 | 35991 ft | 439 kts | 202° |
| 2026-05-06 20:44 | 52.27629 | 3.51366 | 35986 ft | 440 kts | 199° |
| 2026-05-06 20:44 | 52.21806 | 3.48249 | 35985 ft | 440 kts | 200° |
| 2026-05-06 20:45 | 52.16054 | 3.44806 | 35981 ft | 440 kts | 202° |
| 2026-05-06 20:45 | 52.10391 | 3.41187 | 35978 ft | 440 kts | 202° |
| 2026-05-06 20:45 | 52.07544 | 3.39343 | 35755 ft | 440 kts | 202° |
| 2026-05-06 20:46 | 52.04695 | 3.37497 | 35503 ft | 440 kts | 202° |
| 2026-05-06 20:46 | 52.01850 | 3.35659 | 35259 ft | 440 kts | 202° |
| 2026-05-06 20:46 | 51.99005 | 3.33828 | 35013 ft | 440 kts | 202° |
| 2026-05-06 20:46 | 51.96154 | 3.31999 | 34772 ft | 441 kts | 202° |
| 2026-05-06 20:47 | 51.93302 | 3.30176 | 34532 ft | 441 kts | 202° |
| 2026-05-06 20:47 | 51.90451 | 3.28357 | 34293 ft | 441 kts | 202° |
| 2026-05-06 20:47 | 51.87596 | 3.26537 | 34060 ft | 441 kts | 202° |
| 2026-05-06 20:47 | 51.84745 | 3.24722 | 33791 ft | 441 kts | 202° |
| 2026-05-06 20:48 | 51.81923 | 3.22930 | 33512 ft | 442 kts | 202° |
| 2026-05-06 20:48 | 51.79100 | 3.20988 | 33225 ft | 441 kts | 208° |
| 2026-05-06 20:48 | 51.76527 | 3.18331 | 32941 ft | 439 kts | 220° |
| 2026-05-06 20:48 | 51.74407 | 3.14827 | 32669 ft | 436 kts | 234° |
| 2026-05-06 20:49 | 51.72929 | 3.10585 | 32409 ft | 434 kts | 249° |
| 2026-05-06 20:49 | 51.72085 | 3.05916 | 32153 ft | 434 kts | 256° |
| 2026-05-06 20:49 | 51.71518 | 3.01135 | 31893 ft | 434 kts | 260° |
| 2026-05-06 20:49 | 51.71109 | 2.96310 | 31639 ft | 435 kts | 262° |
| 2026-05-06 20:50 | 51.70752 | 2.91536 | 31382 ft | 435 kts | 262° |
| 2026-05-06 20:50 | 51.70392 | 2.86691 | 31126 ft | 436 kts | 262° |
| 2026-05-06 20:50 | 51.70014 | 2.81838 | 30876 ft | 437 kts | 262° |
| 2026-05-06 20:50 | 51.69617 | 2.77005 | 30385 ft | 434 kts | 261° |
| 2026-05-06 20:51 | 51.69201 | 2.72175 | 29462 ft | 437 kts | 261° |
| 2026-05-06 20:51 | 51.68773 | 2.67325 | 28717 ft | 438 kts | 261° |
| 2026-05-06 20:51 | 51.68335 | 2.62429 | 27618 ft | 444 kts | 261° |
| 2026-05-06 20:51 | 51.67892 | 2.57498 | 26658 ft | 445 kts | 261° |
| 2026-05-06 20:52 | 51.67447 | 2.52557 | 25676 ft | 447 kts | 261° |
| 2026-05-06 20:52 | 51.67013 | 2.47592 | 25034 ft | 443 kts | 261° |
| 2026-05-06 20:52 | 51.66595 | 2.42784 | 24910 ft | 425 kts | 261° |
| 2026-05-06 20:52 | 51.66184 | 2.38158 | 24795 ft | 409 kts | 261° |
| 2026-05-06 20:53 | 51.65786 | 2.33778 | 24653 ft | 395 kts | 261° |
| 2026-05-06 20:53 | 51.65389 | 2.29451 | 24230 ft | 388 kts | 260° |
| 2026-05-06 20:53 | 51.64988 | 2.25139 | 23475 ft | 391 kts | 260° |
| 2026-05-06 20:53 | 51.64578 | 2.20751 | 22188 ft | 402 kts | 261° |
| 2026-05-06 20:54 | 51.64150 | 2.16206 | 20680 ft | 419 kts | 260° |
| 2026-05-06 20:54 | 51.63363 | 2.11718 | 20041 ft | 411 kts | 244° |
| 2026-05-06 20:54 | 51.61795 | 2.08065 | 19801 ft | 387 kts | 227° |
| 2026-05-06 20:54 | 51.59943 | 2.05103 | 19549 ft | 364 kts | 224° |
| 2026-05-06 20:55 | 51.58138 | 2.02408 | 19331 ft | 344 kts | 223° |
| 2026-05-06 20:55 | 51.56447 | 1.99899 | 19091 ft | 327 kts | 223° |
| 2026-05-06 20:55 | 51.54822 | 1.97473 | 18856 ft | 311 kts | 224° |
| 2026-05-06 20:55 | 51.53277 | 1.95156 | 18624 ft | 297 kts | 224° |
| 2026-05-06 20:56 | 51.51804 | 1.92942 | 18389 ft | 284 kts | 224° |
| 2026-05-06 20:56 | 51.50410 | 1.90787 | 18064 ft | 273 kts | 231° |
| 2026-05-06 20:56 | 51.49519 | 1.88181 | 17594 ft | 265 kts | 256° |
| 2026-05-06 20:56 | 51.49224 | 1.85285 | 17078 ft | 262 kts | 264° |
| 2026-05-06 20:57 | 51.49089 | 1.82361 | 16443 ft | 265 kts | 266° |
| 2026-05-06 20:57 | 51.48973 | 1.79361 | 15671 ft | 273 kts | 266° |
| 2026-05-06 20:57 | 51.48853 | 1.76282 | 14918 ft | 280 kts | 266° |
| 2026-05-06 20:57 | 51.48727 | 1.73130 | 14180 ft | 285 kts | 266° |
| 2026-05-06 20:58 | 51.48594 | 1.69933 | 13421 ft | 289 kts | 266° |
| 2026-05-06 20:58 | 51.48669 | 1.66754 | 12620 ft | 291 kts | 283° |
| 2026-05-06 20:58 | 51.49505 | 1.63816 | 11850 ft | 292 kts | 304° |
| 2026-05-06 20:58 | 51.50784 | 1.61278 | 11095 ft | 293 kts | 310° |
| 2026-05-06 20:59 | 51.52144 | 1.58834 | 10356 ft | 294 kts | 311° |
| 2026-05-06 20:59 | 51.53509 | 1.56391 | 9616 ft | 293 kts | 311° |
| 2026-05-06 20:59 | 51.54846 | 1.53981 | 9116 ft | 283 kts | 311° |
| 2026-05-06 20:59 | 51.56101 | 1.51698 | 9007 ft | 261 kts | 311° |
| 2026-05-06 21:00 | 51.57247 | 1.49607 | 9002 ft | 238 kts | 311° |
| 2026-05-06 21:00 | 51.58316 | 1.47653 | 9008 ft | 230 kts | 311° |
| 2026-05-06 21:00 | 51.59372 | 1.45720 | 9011 ft | 230 kts | 311° |
| 2026-05-06 21:00 | 51.60428 | 1.43781 | 9005 ft | 231 kts | 311° |
| 2026-05-06 21:01 | 51.61474 | 1.41866 | 9007 ft | 231 kts | 311° |
| 2026-05-06 21:01 | 51.62531 | 1.39927 | 9008 ft | 231 kts | 310° |
| 2026-05-06 21:01 | 51.63393 | 1.37758 | 8971 ft | 231 kts | 292° |
| 2026-05-06 21:01 | 51.63729 | 1.35254 | 8943 ft | 230 kts | 270° |
| 2026-05-06 21:02 | 51.63408 | 1.32776 | 8752 ft | 226 kts | 250° |
| 2026-05-06 21:02 | 51.62740 | 1.30480 | 8724 ft | 227 kts | 242° |
| 2026-05-06 21:02 | 51.61927 | 1.28312 | 8727 ft | 226 kts | 238° |
| 2026-05-06 21:02 | 51.61051 | 1.26205 | 8725 ft | 226 kts | 237° |
| 2026-05-06 21:03 | 51.60161 | 1.24117 | 8722 ft | 226 kts | 237° |
| 2026-05-06 21:03 | 51.59288 | 1.22050 | 8719 ft | 227 kts | 237° |
| 2026-05-06 21:03 | 51.58415 | 1.19934 | 8455 ft | 228 kts | 238° |
| 2026-05-06 21:03 | 51.57556 | 1.17806 | 8160 ft | 226 kts | 238° |
| 2026-05-06 21:04 | 51.56713 | 1.15683 | 7851 ft | 225 kts | 239° |
| 2026-05-06 21:04 | 51.55877 | 1.13559 | 7539 ft | 225 kts | 238° |
| 2026-05-06 21:04 | 51.55044 | 1.11438 | 7223 ft | 224 kts | 238° |
| 2026-05-06 21:04 | 51.54212 | 1.09320 | 6934 ft | 224 kts | 238° |
| 2026-05-06 21:05 | 51.53384 | 1.07212 | 6645 ft | 223 kts | 238° |
| 2026-05-06 21:05 | 51.52555 | 1.05105 | 6301 ft | 225 kts | 238° |
| 2026-05-06 21:05 | 51.51722 | 1.02995 | 6003 ft | 228 kts | 238° |
| 2026-05-06 21:05 | 51.50866 | 1.00830 | 5960 ft | 231 kts | 238° |
| 2026-05-06 21:06 | 51.50001 | 0.98651 | 5957 ft | 232 kts | 237° |
| 2026-05-06 21:06 | 51.49135 | 0.96469 | 5969 ft | 232 kts | 237° |
| 2026-05-06 21:06 | 51.48269 | 0.94291 | 5967 ft | 231 kts | 237° |
| 2026-05-06 21:06 | 51.47406 | 0.92114 | 5965 ft | 231 kts | 238° |
| 2026-05-06 21:07 | 51.46762 | 0.89770 | 5967 ft | 230 kts | 257° |
| 2026-05-06 21:07 | 51.46673 | 0.87231 | 5977 ft | 228 kts | 275° |
| 2026-05-06 21:07 | 51.46804 | 0.84698 | 5972 ft | 228 kts | 275° |
| 2026-05-06 21:07 | 51.46938 | 0.82163 | 5969 ft | 228 kts | 275° |
| 2026-05-06 21:08 | 51.47079 | 0.79625 | 5972 ft | 228 kts | 275° |
| 2026-05-06 21:08 | 51.47228 | 0.77087 | 5929 ft | 229 kts | 275° |
| 2026-05-06 21:08 | 51.47380 | 0.74562 | 5595 ft | 231 kts | 276° |
| 2026-05-06 21:08 | 51.47536 | 0.72021 | 5321 ft | 228 kts | 276° |
| 2026-05-06 21:09 | 51.47692 | 0.69504 | 5033 ft | 226 kts | 276° |
| 2026-05-06 21:09 | 51.47847 | 0.67000 | 4739 ft | 225 kts | 276° |
| 2026-05-06 21:09 | 51.48002 | 0.64509 | 4430 ft | 224 kts | 276° |
| 2026-05-06 21:09 | 51.48154 | 0.62031 | 4116 ft | 223 kts | 276° |
| 2026-05-06 21:10 | 51.48305 | 0.59576 | 3983 ft | 220 kts | 276° |
| 2026-05-06 21:10 | 51.48455 | 0.57121 | 3972 ft | 222 kts | 276° |
| 2026-05-06 21:10 | 51.48602 | 0.54691 | 3970 ft | 222 kts | 276° |
| 2026-05-06 21:10 | 51.48750 | 0.52225 | 3972 ft | 222 kts | 275° |
| 2026-05-06 21:11 | 51.48897 | 0.49758 | 3968 ft | 222 kts | 275° |
| 2026-05-06 21:11 | 51.48973 | 0.47288 | 3938 ft | 222 kts | 265° |
| 2026-05-06 21:11 | 51.48602 | 0.44878 | 3620 ft | 224 kts | 248° |
| 2026-05-06 21:11 | 51.47937 | 0.42630 | 3315 ft | 223 kts | 241° |
| 2026-05-06 21:12 | 51.47158 | 0.40485 | 3038 ft | 221 kts | 238° |
| 2026-05-06 21:12 | 51.46330 | 0.38419 | 2980 ft | 220 kts | 236° |
| 2026-05-06 21:12 | 51.45477 | 0.36368 | 2982 ft | 222 kts | 236° |
| 2026-05-06 21:12 | 51.44619 | 0.34310 | 2983 ft | 222 kts | 236° |
| 2026-05-06 21:13 | 51.43765 | 0.32240 | 2984 ft | 222 kts | 236° |
| 2026-05-06 21:13 | 51.43022 | 0.30114 | 2990 ft | 222 kts | 249° |
| 2026-05-06 21:13 | 51.42707 | 0.27719 | 2999 ft | 220 kts | 264° |
| 2026-05-06 21:13 | 51.42620 | 0.25271 | 2996 ft | 220 kts | 270° |
| 2026-05-06 21:14 | 51.42649 | 0.22822 | 2994 ft | 220 kts | 273° |
| 2026-05-06 21:14 | 51.42747 | 0.20396 | 2992 ft | 214 kts | 275° |
| 2026-05-06 21:14 | 51.42873 | 0.18091 | 2994 ft | 203 kts | 276° |
| 2026-05-06 21:14 | 51.43008 | 0.15846 | 2986 ft | 202 kts | 276° |
| 2026-05-06 21:15 | 51.43140 | 0.13599 | 2703 ft | 203 kts | 276° |
| 2026-05-06 21:15 | 51.43264 | 0.11352 | 2434 ft | 202 kts | 276° |
| 2026-05-06 21:15 | 51.43378 | 0.09143 | 2164 ft | 201 kts | 276° |
| 2026-05-06 21:15 | 51.43486 | 0.06923 | 1993 ft | 199 kts | 275° |
| 2026-05-06 21:16 | 51.43591 | 0.04720 | 1998 ft | 199 kts | 276° |
| 2026-05-06 21:16 | 51.43694 | 0.02504 | 1994 ft | 199 kts | 276° |
| 2026-05-06 21:16 | 51.43795 | 0.00294 | 1999 ft | 200 kts | 275° |
| 2026-05-06 21:16 | 51.43897 | -0.01928 | 1992 ft | 199 kts | 276° |
| 2026-05-06 21:17 | 51.43998 | -0.04140 | 2002 ft | 199 kts | 275° |
| 2026-05-06 21:17 | 51.44094 | -0.06355 | 1993 ft | 199 kts | 275° |
| 2026-05-06 21:17 | 51.44190 | -0.08545 | 2004 ft | 199 kts | 275° |
| 2026-05-06 21:17 | 51.44380 | -0.10704 | 2000 ft | 197 kts | 285° |
| 2026-05-06 21:18 | 51.44758 | -0.12842 | 2005 ft | 197 kts | 289° |
| 2026-05-06 21:18 | 51.45306 | -0.14839 | 1984 ft | 195 kts | 302° |
| 2026-05-06 21:18 | 51.46208 | -0.16414 | 1998 ft | 192 kts | 322° |
| 2026-05-06 21:18 | 51.47374 | -0.17392 | 1985 ft | 189 kts | 352° |
| 2026-05-06 21:19 | 51.48649 | -0.17068 | 1998 ft | 188 kts | 29° |
| 2026-05-06 21:19 | 51.49653 | -0.15722 | 1999 ft | 190 kts | 45° |
| 2026-05-06 21:19 | 51.50497 | -0.14114 | 1981 ft | 192 kts | 57° |
| 2026-05-06 21:19 | 51.50965 | -0.12097 | 1993 ft | 194 kts | 74° |
| 2026-05-06 21:20 | 51.51046 | -0.09944 | 2028 ft | 191 kts | 91° |
| 2026-05-06 21:20 | 51.50937 | -0.07939 | 2004 ft | 171 kts | 90° |
| 2026-05-06 21:20 | 51.50891 | -0.06121 | 2003 ft | 160 kts | 89° |
| 2026-05-06 21:20 | 51.50838 | -0.04370 | 2003 ft | 154 kts | 89° |
| 2026-05-06 21:21 | 51.50792 | -0.02695 | 1982 ft | 149 kts | 88° |
| 2026-05-06 21:21 | 51.50758 | -0.01055 | 1666 ft | 143 kts | 87° |
| 2026-05-06 21:21 | 51.50711 | 0.00525 | 1186 ft | 146 kts | 91° |
| 2026-05-06 21:21 | 51.50574 | 0.02168 | 666 ft | 151 kts | 95° |
| 2026-05-06 21:22 | 51.50481 | 0.03848 | 273 ft | 148 kts | 87° |
| 2026-05-06 21:22 | 51.50522 | 0.05482 | 29 ft | 140 kts | 87° |
| 2026-05-06 21:22 | 51.50506 | 0.06417 | 33 ft | 30 kts | 97° |
| 2026-05-06 21:22 | 51.50452 | 0.06503 | 32 ft | 3 kts | 232° |
| 2026-05-06 21:23 | 51.50441 | 0.06487 | 32 ft | 2 kts | 219° |
| 2026-05-06 21:23 | 51.50429 | 0.06462 | 32 ft | 3 kts | 238° |
| 2026-05-06 21:23 | 51.50422 | 0.06430 | 32 ft | 5 kts | 257° |
| 2026-05-06 21:23 | 51.50453 | 0.06304 | 33 ft | 14 kts | 293° |
| 2026-05-06 21:24 | 51.50491 | 0.06157 | 29 ft | 16 kts | 286° |
| 2026-05-06 21:24 | 51.50503 | 0.05970 | 26 ft | 17 kts | 275° |
| 2026-05-06 21:24 | 51.50513 | 0.05778 | 26 ft | 17 kts | 274° |
| 2026-05-06 21:24 | 51.50519 | 0.05588 | 27 ft | 16 kts | 272° |
| 2026-05-06 21:25 | 51.50525 | 0.05415 | 29 ft | 15 kts | 274° |
| 2026-05-06 21:25 | 51.50511 | 0.05344 | 30 ft | 3 kts | 235° |
| 2026-05-06 21:25 | 51.50504 | 0.05330 | 31 ft | 1 kts | 230° |
| 2026-05-06 21:25 | 51.50480 | 0.05291 | 32 ft | 8 kts | 226° |
| 2026-05-06 21:26 | 51.50458 | 0.05216 | 31 ft | 7 kts | 243° |
| 2026-05-06 21:26 | 51.50414 | 0.05177 | 30 ft | 6 kts | 209° |
| 2026-05-06 21:26 | 51.50406 | 0.05130 | 30 ft | 0 kts | 298° |
| 2026-05-06 21:26 | 51.50408 | 0.05126 | 30 ft | 3 kts | 311° |
| 2026-05-06 21:27 | 51.50413 | 0.05122 | 30 ft | 0 kts | 332° |